createdAt,value
2023-02-12T00:01:38.004Z,19.88
2023-02-12T00:04:11.091Z,18.95
2023-02-12T00:06:43.946Z,17.40
2023-02-12T00:09:16.896Z,19.63
2023-02-12T00:11:49.844Z,14.98
2023-02-12T00:14:24.147Z,18.40
2023-02-12T00:16:57.041Z,18.13
2023-02-12T00:19:30.022Z,21.45
2023-02-12T00:22:02.898Z,16.80
2023-02-12T00:24:35.761Z,20.77
2023-02-12T00:27:08.666Z,18.92
2023-02-12T00:29:43.034Z,20.55
2023-02-12T00:32:19.489Z,16.20
2023-02-12T00:34:52.618Z,19.95
2023-02-12T00:37:25.601Z,21.48
2023-02-12T00:39:58.620Z,19.05
2023-02-12T00:42:31.749Z,18.95
2023-02-12T00:45:06.895Z,21.88
2023-02-12T00:47:39.783Z,19.77
2023-02-12T00:50:13.333Z,22.25
2023-02-12T00:52:46.169Z,19.80
2023-02-12T00:55:19.420Z,22.52
2023-02-12T00:57:52.309Z,19.48
2023-02-12T01:00:26.892Z,20.42
2023-02-12T01:02:59.759Z,18.98
2023-02-12T01:05:33.429Z,18.30
2023-02-12T01:08:06.728Z,18.10
2023-02-12T01:10:39.743Z,16.20
2023-02-12T01:13:14.970Z,19.20
2023-02-12T01:15:49.348Z,16.30
2023-02-12T01:18:22.271Z,18.55
2023-02-12T01:20:55.229Z,20.52
2023-02-12T01:23:28.572Z,21.67
2023-02-12T01:26:01.779Z,21.42
2023-02-12T01:28:35.168Z,20.27
2023-02-12T01:31:14.746Z,19.75
2023-02-12T01:33:49.587Z,20.05
2023-02-12T01:36:23.570Z,20.00
2023-02-12T01:38:57.946Z,23.48
2023-02-12T01:41:32.872Z,21.52
2023-02-12T01:44:12.253Z,19.15
2023-02-12T01:46:48.478Z,20.38
2023-02-12T01:49:25.681Z,19.67
2023-02-12T01:52:03.890Z,18.20
2023-02-12T01:54:38.105Z,22.13
2023-02-12T01:57:15.414Z,18.77
2023-02-12T01:59:52.545Z,19.25
2023-02-12T02:02:26.982Z,20.13
2023-02-12T02:05:03.316Z,21.13
2023-02-12T02:07:36.727Z,18.13
2023-02-12T02:10:10.854Z,21.17
2023-02-12T02:13:00.990Z,20.23
2023-02-12T02:15:34.468Z,20.23
2023-02-12T02:18:12.964Z,18.55
2023-02-12T02:21:30.045Z,18.70
2023-02-12T02:24:36.004Z,20.95
2023-02-12T02:27:19.463Z,22.52
2023-02-12T02:30:33.847Z,18.77
2023-02-12T02:33:23.503Z,17.13
2023-02-12T02:36:07.808Z,20.17
2023-02-12T02:38:45.724Z,17.95
2023-02-12T02:41:26.272Z,18.27
2023-02-12T02:44:01.241Z,19.73
2023-02-12T02:46:38.902Z,19.70
2023-02-12T02:49:20.720Z,18.60
2023-02-12T02:54:34.750Z,18.15
2023-02-12T02:57:12.447Z,17.00
2023-02-12T02:59:50.542Z,19.27
2023-02-12T03:02:29.120Z,19.25
2023-02-12T03:05:07.525Z,18.65
2023-02-12T03:07:45.428Z,20.77
2023-02-12T03:10:21.992Z,19.42
2023-02-12T03:12:59.744Z,21.55
2023-02-12T03:15:36.966Z,18.88
2023-02-12T03:18:13.991Z,18.85
2023-02-12T03:20:53.160Z,20.13
2023-02-12T03:23:30.123Z,17.98
2023-02-12T03:26:07.812Z,22.15
2023-02-12T03:28:41.693Z,19.73
2023-02-12T03:31:25.723Z,17.85
2023-02-12T03:34:10.233Z,18.63
2023-02-12T03:36:52.747Z,20.58
2023-02-12T03:39:32.506Z,19.10
2023-02-12T03:42:11.990Z,20.15
2023-02-12T03:44:51.463Z,19.98
2023-02-12T03:47:30.607Z,18.95
2023-02-12T03:50:10.707Z,18.25
2023-02-12T03:52:45.681Z,19.30
2023-02-12T03:55:19.128Z,21.02
2023-02-12T03:57:55.575Z,21.02
2023-02-12T04:00:29.200Z,18.73
2023-02-12T04:03:02.276Z,23.33
2023-02-12T04:05:35.177Z,24.90
2023-02-12T04:08:10.946Z,19.65
2023-02-12T04:10:54.351Z,19.65
2023-02-12T04:13:34.602Z,17.92
2023-02-12T04:16:21.098Z,18.85
2023-02-12T04:18:55.326Z,18.50
2023-02-12T04:21:44.955Z,21.80
2023-02-12T04:24:24.578Z,18.38
2023-02-12T04:27:05.093Z,20.17
2023-02-12T04:29:48.360Z,20.08
2023-02-12T04:32:29.657Z,20.10
2023-02-12T04:35:09.192Z,16.80
2023-02-12T04:37:45.355Z,21.00
2023-02-12T04:40:22.940Z,20.08
2023-02-12T04:42:56.032Z,20.45
2023-02-12T04:45:31.907Z,20.63
2023-02-12T04:48:05.898Z,20.92
2023-02-12T04:50:41.621Z,19.60
2023-02-12T04:53:15.041Z,19.52
2023-02-12T04:55:50.749Z,17.88
2023-02-12T04:58:23.714Z,20.23
2023-02-12T05:01:00.229Z,19.00
2023-02-12T05:03:33.202Z,17.38
2023-02-12T05:06:07.315Z,19.33
2023-02-12T05:08:40.242Z,18.20
2023-02-12T05:11:14.763Z,22.15
2023-02-12T05:13:50.228Z,21.83
2023-02-12T05:16:23.786Z,25.85
2023-02-12T05:18:56.739Z,18.67
2023-02-12T05:21:29.672Z,19.88
2023-02-12T05:24:02.762Z,21.25
2023-02-12T05:26:37.376Z,19.67
2023-02-12T05:29:10.503Z,21.50
2023-02-12T05:31:43.533Z,22.20
2023-02-12T05:34:16.527Z,20.75
2023-02-12T05:36:49.410Z,19.30
2023-02-12T05:39:22.713Z,21.50
2023-02-12T05:41:57.109Z,21.67
2023-02-12T05:44:30.102Z,21.50
2023-02-12T05:47:02.993Z,19.25
2023-02-12T05:49:35.945Z,23.45
2023-02-12T05:52:08.932Z,23.52
2023-02-12T05:54:41.892Z,23.38
2023-02-12T05:57:16.563Z,18.13
2023-02-12T05:59:49.454Z,20.80
2023-02-12T06:02:22.307Z,19.98
2023-02-12T06:04:55.290Z,20.92
2023-02-12T06:07:28.301Z,19.40
2023-02-12T06:10:01.264Z,21.40
2023-02-12T06:12:35.573Z,21.23
2023-02-12T06:15:09.617Z,20.52
2023-02-12T06:17:42.452Z,18.35
2023-02-12T06:20:15.342Z,21.98
2023-02-12T06:22:48.683Z,25.20
2023-02-12T06:25:21.808Z,20.42
2023-02-12T06:27:56.143Z,19.67
2023-02-12T06:30:29.092Z,20.98
2023-02-12T06:33:02.325Z,24.02
2023-02-12T06:35:36.881Z,17.98
2023-02-12T06:38:09.855Z,22.10
2023-02-12T06:40:43.026Z,19.88
2023-02-12T06:43:17.252Z,19.13
2023-02-12T06:45:50.169Z,22.17
2023-02-12T06:48:23.186Z,21.55
2023-02-12T06:50:56.148Z,23.42
2023-02-12T06:53:28.985Z,21.20
2023-02-12T06:56:02.602Z,25.10
2023-02-12T06:58:36.923Z,24.05
2023-02-12T07:01:13.754Z,23.05
2023-02-12T07:03:50.309Z,22.40
2023-02-12T07:06:24.364Z,24.85
2023-02-12T07:08:58.391Z,22.50
2023-02-12T07:11:36.152Z,28.88
2023-02-12T07:14:16.533Z,28.35
2023-02-12T07:16:49.513Z,28.85
2023-02-12T07:19:22.927Z,31.13
2023-02-12T07:21:55.832Z,26.33
2023-02-12T07:24:29.016Z,23.67
2023-02-12T07:27:02.018Z,26.55
2023-02-12T07:29:36.412Z,26.27
2023-02-12T07:32:09.477Z,29.30
2023-02-12T07:34:42.416Z,27.50
2023-02-12T07:37:15.305Z,25.80
2023-02-12T07:39:48.237Z,25.48
2023-02-12T07:42:21.304Z,26.45
2023-02-12T07:44:55.609Z,25.77
2023-02-12T07:47:28.538Z,24.35
2023-02-12T07:50:01.413Z,30.10
2023-02-12T07:52:34.329Z,25.30
2023-02-12T07:55:08.159Z,26.50
2023-02-12T07:57:41.054Z,27.48
2023-02-12T08:00:17.309Z,27.05
2023-02-12T08:02:54.241Z,25.02
2023-02-12T08:05:27.240Z,27.05
2023-02-12T08:08:00.136Z,27.92
2023-02-12T08:10:33.097Z,32.50
2023-02-12T08:13:06.055Z,30.85
2023-02-12T08:15:40.430Z,30.10
2023-02-12T08:18:13.437Z,29.48
2023-02-12T08:20:46.273Z,27.60
2023-02-12T08:23:19.210Z,33.08
2023-02-12T08:25:52.093Z,29.05
2023-02-12T08:28:25.396Z,27.90
2023-02-12T08:31:03.864Z,29.88
2023-02-12T08:33:36.734Z,30.42
2023-02-12T08:36:11.694Z,33.08
2023-02-12T08:38:45.505Z,30.70
2023-02-12T08:41:21.748Z,29.50
2023-02-12T08:43:56.125Z,28.67
2023-02-12T08:46:32.275Z,29.73
2023-02-12T08:49:07.440Z,30.27
2023-02-12T08:51:42.825Z,29.25
2023-02-12T08:54:17.942Z,29.50
2023-02-12T08:56:51.458Z,32.45
2023-02-12T08:59:24.787Z,31.17
2023-02-12T09:02:00.581Z,32.85
2023-02-12T09:04:34.311Z,33.03
2023-02-12T09:07:10.346Z,30.90
2023-02-12T09:09:43.681Z,29.10
2023-02-12T09:12:16.547Z,29.30
2023-02-12T09:14:49.793Z,33.78
2023-02-12T09:17:27.473Z,29.13
2023-02-12T09:20:01.538Z,30.90
2023-02-12T09:22:38.117Z,30.48
2023-02-12T09:25:11.193Z,28.58
2023-02-12T09:27:44.052Z,30.25
2023-02-12T09:30:17.745Z,36.88
2023-02-12T09:32:52.030Z,30.58
2023-02-12T09:35:24.979Z,28.90
2023-02-12T09:37:57.918Z,26.65
2023-02-12T09:40:37.187Z,28.77
2023-02-12T09:43:19.127Z,28.08
2023-02-12T09:48:43.257Z,26.23
2023-02-12T09:51:16.417Z,25.40
2023-02-12T09:53:51.251Z,31.88
2023-02-12T09:56:25.909Z,28.00
2023-02-12T09:59:02.979Z,28.63
2023-02-12T10:01:36.650Z,29.02
2023-02-12T10:04:11.098Z,27.42
2023-02-12T10:06:55.160Z,29.70
2023-02-12T10:09:43.291Z,28.67
2023-02-12T10:12:26.242Z,28.25
2023-02-12T10:15:18.169Z,30.48
2023-02-12T10:18:02.809Z,28.67
2023-02-12T10:20:53.250Z,28.05
2023-02-12T10:23:52.363Z,26.02
2023-02-12T10:26:29.682Z,25.40
2023-02-12T10:29:12.274Z,27.08
2023-02-12T10:31:49.841Z,30.42
2023-02-12T10:34:26.130Z,29.58
2023-02-12T10:37:05.725Z,29.58
2023-02-12T10:39:44.098Z,27.73
2023-02-12T10:42:20.687Z,29.25
2023-02-12T10:44:53.721Z,28.08
2023-02-12T10:47:27.286Z,30.30
2023-02-12T10:50:02.747Z,29.83
2023-02-12T10:52:46.119Z,28.85
2023-02-12T10:55:27.881Z,28.35
2023-02-12T10:58:02.676Z,29.48
2023-02-12T11:00:37.232Z,28.48
2023-02-12T11:03:22.193Z,28.05
2023-02-12T11:05:55.405Z,26.98
2023-02-12T11:08:36.577Z,27.88
2023-02-12T11:11:12.875Z,24.13
2023-02-12T11:13:49.985Z,27.77
2023-02-12T11:16:31.746Z,23.08
2023-02-12T11:21:38.844Z,22.20
2023-02-12T11:24:31.919Z,23.30
2023-02-12T11:27:30.961Z,25.25
2023-02-12T11:30:15.855Z,27.13
2023-02-12T11:32:51.713Z,27.25
2023-02-12T11:35:28.527Z,24.85
2023-02-12T11:38:02.691Z,26.15
2023-02-12T11:40:37.467Z,27.00
2023-02-12T11:43:19.634Z,23.75
2023-02-12T11:45:56.412Z,24.67
2023-02-12T11:48:34.799Z,25.55
2023-02-12T11:51:10.715Z,23.42
2023-02-12T11:53:48.940Z,21.35
2023-02-12T11:56:23.543Z,21.80
2023-02-12T11:59:13.693Z,23.02
2023-02-12T12:01:47.821Z,24.92
2023-02-12T12:04:24.207Z,23.15
2023-02-12T12:07:01.814Z,21.35
2023-02-12T12:09:42.569Z,22.02
2023-02-12T12:12:21.551Z,25.20
2023-02-12T12:15:16.814Z,21.92
2023-02-12T12:18:15.246Z,23.55
2023-02-12T12:20:52.758Z,23.30
2023-02-12T12:23:33.196Z,22.75
2023-02-12T12:26:09.596Z,24.48
2023-02-12T12:28:49.009Z,23.00
2023-02-12T12:31:26.846Z,20.65
2023-02-12T12:34:07.260Z,22.02
2023-02-12T12:37:07.479Z,24.30
2023-02-12T12:39:53.487Z,24.67
2023-02-12T12:43:03.038Z,22.27
2023-02-12T12:46:13.704Z,23.60
2023-02-12T12:49:12.448Z,23.77
2023-02-12T12:52:03.927Z,20.88
2023-02-12T12:54:53.416Z,18.35
2023-02-12T12:57:42.679Z,21.67
2023-02-12T13:00:29.593Z,23.33
2023-02-12T13:03:39.850Z,19.00
2023-02-12T13:06:47.748Z,19.90
2023-02-12T13:09:50.820Z,17.52
2023-02-12T13:12:52.885Z,20.08
2023-02-12T13:15:34.862Z,20.05
2023-02-12T13:18:28.952Z,17.98
2023-02-12T13:21:11.627Z,19.40
2023-02-12T13:23:51.055Z,17.52
2023-02-12T13:26:31.484Z,20.10
2023-02-12T13:29:11.190Z,18.52
2023-02-12T13:31:50.430Z,23.30
2023-02-12T13:34:26.606Z,17.02
2023-02-12T13:37:03.374Z,18.42
2023-02-12T13:39:40.081Z,18.65
2023-02-12T13:42:28.957Z,17.75
2023-02-12T13:45:18.317Z,18.23
2023-02-12T13:48:00.937Z,16.48
2023-02-12T13:50:42.960Z,18.60
2023-02-12T13:53:24.577Z,21.33
2023-02-12T13:56:08.070Z,17.05
2023-02-12T13:58:49.389Z,16.05
2023-02-12T14:01:46.646Z,16.73
2023-02-12T14:04:32.601Z,17.58
2023-02-12T14:07:10.319Z,18.17
2023-02-12T14:09:47.507Z,15.27
2023-02-12T14:12:33.505Z,15.02
2023-02-12T14:15:09.157Z,12.93
2023-02-12T14:17:53.803Z,15.18
2023-02-12T14:20:29.612Z,15.52
2023-02-12T14:23:32.025Z,16.13
2023-02-12T14:26:12.295Z,16.38
2023-02-12T14:28:52.788Z,13.15
2023-02-12T14:31:34.978Z,17.15
2023-02-12T14:34:48.579Z,15.05
2023-02-12T14:37:38.162Z,15.85
2023-02-12T14:40:42.739Z,16.30
2023-02-12T14:43:29.487Z,16.00
2023-02-12T14:46:35.785Z,14.50
2023-02-12T14:49:21.943Z,13.95
2023-02-12T14:52:01.530Z,14.60
2023-02-12T14:54:38.011Z,15.20
2023-02-12T14:57:21.553Z,14.55
2023-02-12T14:59:59.183Z,11.80
2023-02-12T15:02:36.758Z,11.95
2023-02-12T15:05:18.322Z,13.65
2023-02-12T15:07:55.720Z,11.32
2023-02-12T15:10:31.974Z,11.98
2023-02-12T15:13:16.898Z,9.27
2023-02-12T15:15:56.930Z,10.18
2023-02-12T15:18:37.001Z,11.25
2023-02-12T15:21:20.641Z,8.45
2023-02-12T15:24:04.556Z,9.55
2023-02-12T15:26:42.029Z,8.85
2023-02-12T15:29:22.688Z,9.13
2023-02-12T15:31:59.626Z,9.88
2023-02-12T15:34:35.496Z,10.43
2023-02-12T15:37:09.616Z,7.57
2023-02-12T15:39:45.556Z,10.15
2023-02-12T15:42:27.710Z,9.10
2023-02-12T15:45:17.363Z,7.65
2023-02-12T15:48:01.918Z,8.63
2023-02-12T15:50:36.537Z,8.30
2023-02-12T15:53:10.127Z,8.20
2023-02-12T15:55:46.455Z,9.73
2023-02-12T15:58:23.884Z,7.30
2023-02-12T16:01:02.444Z,7.03
2023-02-12T16:03:39.377Z,7.50
2023-02-12T16:06:16.691Z,9.13
2023-02-12T16:08:51.702Z,7.50
2023-02-12T16:11:27.327Z,7.57
2023-02-12T16:14:02.788Z,8.20
2023-02-12T16:16:45.398Z,7.95
2023-02-12T16:19:23.266Z,6.63
2023-02-12T16:22:01.991Z,8.20
2023-02-12T16:24:38.033Z,8.95
2023-02-12T16:27:20.212Z,7.32
2023-02-12T16:29:55.630Z,8.10
2023-02-12T16:32:32.236Z,9.35
2023-02-12T16:35:24.555Z,9.90
2023-02-12T16:38:03.665Z,10.43
2023-02-12T16:40:37.823Z,10.05
2023-02-12T16:43:26.364Z,9.27
2023-02-12T16:46:06.791Z,10.48
2023-02-12T16:48:41.653Z,10.80
2023-02-12T16:51:25.019Z,10.57
2023-02-12T16:53:59.078Z,12.07
2023-02-12T16:56:34.405Z,9.50
2023-02-12T16:59:07.451Z,8.38
2023-02-12T17:01:40.494Z,10.82
2023-02-12T17:04:16.538Z,7.72
2023-02-12T17:06:50.788Z,10.75
2023-02-12T17:09:23.728Z,8.55
2023-02-12T17:11:56.770Z,9.63
2023-02-12T17:14:29.973Z,9.93
2023-02-12T17:17:02.954Z,8.95
2023-02-12T17:19:36.027Z,10.60
2023-02-12T17:22:19.593Z,9.32
2023-02-12T17:24:53.352Z,8.85
2023-02-12T17:27:26.338Z,8.93
2023-02-12T17:29:59.294Z,10.18
2023-02-12T17:32:32.142Z,9.30
2023-02-12T17:35:06.659Z,10.63
2023-02-12T17:37:40.956Z,9.70
2023-02-12T17:40:14.154Z,10.07
2023-02-12T17:42:47.064Z,9.60
2023-02-12T17:45:21.113Z,7.85
2023-02-12T17:47:54.910Z,9.48
2023-02-12T17:50:28.354Z,8.90
2023-02-12T17:53:02.656Z,7.25
2023-02-12T17:55:38.786Z,8.10
2023-02-12T17:58:11.676Z,8.23
2023-02-12T18:00:44.959Z,8.25
2023-02-12T18:03:17.824Z,8.90
2023-02-12T18:05:50.786Z,7.28
2023-02-12T18:08:25.186Z,8.38
2023-02-12T18:10:58.484Z,6.45
2023-02-12T18:13:31.538Z,7.60
2023-02-12T18:16:07.569Z,7.43
2023-02-12T18:18:41.363Z,9.40
2023-02-12T18:21:15.924Z,9.70
2023-02-12T18:23:50.327Z,8.82
2023-02-12T18:26:24.188Z,7.82
2023-02-12T18:28:58.410Z,8.82
2023-02-12T18:31:31.649Z,8.32
2023-02-12T18:34:05.736Z,8.55
2023-02-12T18:36:38.721Z,6.43
2023-02-12T18:39:13.004Z,7.38
2023-02-12T18:41:46.594Z,9.52
2023-02-12T18:44:19.711Z,10.75
2023-02-12T18:46:52.902Z,10.32
2023-02-12T18:49:25.866Z,9.88
2023-02-12T18:51:59.015Z,10.02
2023-02-12T18:54:33.644Z,11.13
2023-02-12T18:57:06.673Z,12.48
2023-02-12T18:59:39.647Z,9.60
2023-02-12T19:02:13.764Z,10.13
2023-02-12T19:04:46.835Z,9.85
2023-02-12T19:07:19.806Z,9.48
2023-02-12T19:09:54.209Z,9.30
2023-02-12T19:12:27.224Z,9.05
2023-02-12T19:15:00.129Z,7.30
2023-02-12T19:17:34.704Z,10.15
2023-02-12T19:20:09.453Z,9.00
2023-02-12T19:22:42.694Z,9.52
2023-02-12T19:25:17.356Z,8.95
2023-02-12T19:27:50.239Z,10.40
2023-02-12T19:30:23.277Z,10.00
2023-02-12T19:32:56.589Z,8.95
2023-02-12T19:35:29.487Z,8.93
2023-02-12T19:38:03.101Z,10.15
2023-02-12T19:40:37.452Z,8.88
2023-02-12T19:43:10.377Z,8.98
2023-02-12T19:45:43.267Z,11.75
2023-02-12T19:48:16.234Z,9.15
2023-02-12T19:50:49.119Z,11.63
2023-02-12T19:53:22.092Z,8.90
2023-02-12T19:55:56.502Z,9.13
2023-02-12T19:58:30.325Z,10.23
2023-02-12T20:01:09.027Z,10.32
2023-02-12T20:03:42.346Z,10.70
2023-02-12T20:06:17.523Z,12.05
2023-02-12T20:08:51.132Z,10.43
2023-02-12T20:11:27.205Z,8.82
2023-02-12T20:14:01.829Z,10.48
2023-02-12T20:16:38.296Z,8.50
2023-02-12T20:19:13.915Z,10.15
2023-02-12T20:21:48.827Z,8.88
2023-02-12T20:24:22.612Z,8.90
2023-02-12T20:26:58.124Z,11.10
2023-02-12T20:29:31.424Z,10.00
2023-02-12T20:32:04.398Z,9.23
2023-02-12T20:34:50.150Z,8.90
2023-02-12T20:37:23.965Z,9.70
2023-02-12T20:39:56.903Z,10.30
2023-02-12T20:42:31.558Z,9.40
2023-02-12T20:45:05.223Z,10.45
2023-02-12T20:47:38.327Z,13.30
2023-02-12T20:50:11.779Z,11.57
2023-02-12T20:52:45.180Z,11.57
2023-02-12T20:55:18.170Z,11.77
2023-02-12T20:57:52.566Z,13.93
2023-02-12T21:00:25.611Z,12.90
2023-02-12T21:03:00.977Z,10.20
2023-02-12T21:05:34.244Z,11.85
2023-02-12T21:08:07.440Z,13.60
2023-02-12T21:10:40.322Z,11.05
2023-02-12T21:13:14.556Z,13.75
2023-02-12T21:15:47.697Z,9.70
2023-02-12T21:18:24.249Z,12.13
2023-02-12T21:21:01.796Z,11.57
2023-02-12T21:23:35.367Z,9.10
2023-02-12T21:26:10.500Z,12.88
2023-02-12T21:28:45.480Z,9.65
2023-02-12T21:31:22.170Z,13.02
2023-02-12T21:33:56.541Z,11.18
2023-02-12T21:36:31.950Z,12.02
2023-02-12T21:39:06.507Z,13.38
2023-02-12T21:41:41.001Z,9.95
2023-02-12T21:44:17.174Z,11.45
2023-02-12T21:46:50.702Z,11.48
2023-02-12T21:49:28.284Z,9.82
2023-02-12T21:52:03.613Z,9.82
2023-02-12T21:54:36.797Z,13.23
2023-02-12T21:57:09.690Z,11.30
2023-02-12T21:59:43.991Z,10.40
2023-02-12T22:02:16.957Z,11.32
2023-02-12T22:04:50.347Z,12.68
2023-02-12T22:07:23.286Z,10.50
2023-02-12T22:09:56.887Z,12.43
2023-02-12T22:12:32.502Z,12.23
2023-02-12T22:15:07.778Z,12.98
2023-02-12T22:17:40.770Z,11.40
2023-02-12T22:20:13.897Z,11.18
2023-02-12T22:22:46.833Z,9.93
2023-02-12T22:25:19.864Z,10.55
2023-02-12T22:27:52.835Z,11.35
2023-02-12T22:30:27.178Z,10.27
2023-02-12T22:33:00.234Z,14.82
2023-02-12T22:35:33.604Z,16.58
2023-02-12T22:38:06.591Z,16.20
2023-02-12T22:40:39.454Z,16.02
2023-02-12T22:43:12.791Z,14.88
2023-02-12T22:45:47.056Z,14.52
2023-02-12T22:48:19.952Z,14.07
2023-02-12T22:50:53.346Z,14.50
2023-02-12T22:53:27.114Z,13.80
2023-02-12T22:56:04.011Z,15.00
2023-02-12T22:58:38.785Z,12.50
2023-02-12T23:01:14.515Z,12.07
2023-02-12T23:03:47.622Z,11.57
2023-02-12T23:06:23.044Z,11.10
2023-02-12T23:08:59.124Z,11.13
2023-02-12T23:11:33.830Z,12.57
2023-02-12T23:14:07.281Z,14.32
2023-02-12T23:16:41.837Z,11.07
2023-02-12T23:19:14.992Z,11.93
2023-02-12T23:21:47.859Z,11.85
2023-02-12T23:24:20.812Z,12.68
2023-02-12T23:26:54.155Z,11.65
2023-02-12T23:29:27.218Z,12.68
2023-02-12T23:32:01.539Z,13.30
2023-02-12T23:34:34.556Z,11.40
2023-02-12T23:37:07.503Z,11.77
2023-02-12T23:39:40.384Z,13.35
2023-02-12T23:42:13.268Z,12.70
2023-02-12T23:44:46.404Z,11.68
2023-02-12T23:47:20.637Z,11.77
2023-02-12T23:49:53.603Z,13.45
2023-02-12T23:52:26.483Z,10.32
2023-02-12T23:54:59.426Z,11.82
2023-02-12T23:57:32.273Z,13.40
